My Profile
  1. Member Settings
  2. My Devices
  3. Sign Out
        More Settings
      Elev 125 ft, 38.852 °N 77.059 °W

      Arlington, VA

      Ronald Reagan Washington National Airport Station76°

      Daily Observations

      DateTemp High/LowDew Pt High/LowHumidityWindMax WindWind GustPressurePrecip.Condition
      5/31/2024 77 °F / 56 °F 45 °F / 40 °F 40 % 15 mph - 30.19 in 0 in
      5/30/2024 76 °F / 58 °F 53 °F / 41 °F 52 % 16 mph - 30.03 in 0 in
      5/29/2024 79 °F / 60 °F 61 °F / 53 °F 70 % 13 mph - 29.94 in 0 in
      5/28/2024 83 °F / 64 °F 66 °F / 53 °F 63 % 30 mph - 29.84 in 0 in
      5/27/2024 82 °F / 68 °F 72 °F / 62 °F 79 % 18 mph - 29.73 in 0 in
      5/26/2024 88 °F / 68 °F 71 °F / 65 °F 73 % 23 mph - 29.85 in 0 in
      5/25/2024 87 °F / 69 °F 69 °F / 61 °F 67 % 13 mph - 29.84 in 0.04 in
      5/24/2024 88 °F / 70 °F 68 °F / 58 °F 64 % 12 mph - 29.85 in 0.01 in
      5/23/2024 86 °F / 72 °F 69 °F / 64 °F 70 % 12 mph - 29.89 in 0.02 in
      5/22/2024 87 °F / 65 °F 70 °F / 61 °F 71 % 13 mph - 29.93 in 0 in
      5/21/2024 83 °F / 62 °F 64 °F / 57 °F 70 % 13 mph - 29.99 in 0 in
      5/20/2024 81 °F / 60 °F 64 °F / 57 °F 80 % 9 mph - 30.02 in 0 in
      5/19/2024 76 °F / 63 °F 63 °F / 59 °F 79 % 7 mph - 29.98 in 0 in
      5/18/2024 65 °F / 62 °F 61 °F / 57 °F 87 % 8 mph - 29.95 in 0.75 in
      5/17/2024 69 °F / 64 °F 59 °F / 57 °F 75 % 10 mph - 29.93 in 0 in
      5/16/2024 82 °F / 59 °F 59 °F / 56 °F 66 % 17 mph - 29.75 in 0 in
      5/15/2024 68 °F / 61 °F 61 °F / 57 °F 85 % 14 mph - 29.74 in 0.19 in
      5/14/2024 69 °F / 62 °F 64 °F / 55 °F 82 % 23 mph - 29.92 in 0.53 in
      5/13/2024 77 °F / 52 °F 56 °F / 49 °F 68 % 15 mph - 30.03 in 0 in
      5/12/2024 70 °F / 50 °F 52 °F / 43 °F 75 % 15 mph - 29.85 in 1.59 in
      5/11/2024 67 °F / 48 °F 51 °F / 41 °F 69 % 14 mph - 29.83 in 0.1 in
      5/10/2024 61 °F / 51 °F 57 °F / 47 °F 87 % 20 mph - 29.7 in 0.59 in
      5/9/2024 75 °F / 60 °F 66 °F / 53 °F 68 % 13 mph - 29.67 in 0.12 in
      5/8/2024 88 °F / 68 °F 68 °F / 58 °F 64 % 15 mph - 29.65 in 0 in
      5/7/2024 79 °F / 68 °F 68 °F / 66 °F 85 % 12 mph - 29.78 in 0.02 in
      5/6/2024 77 °F / 67 °F 67 °F / 64 °F 83 % 8 mph - 29.95 in 0.03 in
      5/5/2024 72 °F / 55 °F 66 °F / 52 °F 89 % 9 mph - 30.11 in 0.92 in
      5/4/2024 56 °F / 53 °F 52 °F / 49 °F 89 % 12 mph - 30.2 in 1.82 in
      5/3/2024 76 °F / 55 °F 62 °F / 48 °F 65 % 16 mph - 30.05 in 0 in
      5/2/2024 91 °F / 63 °F 63 °F / 57 °F 60 % 12 mph - 29.94 in 0 in
      5/1/2024 85 °F / 64 °F 63 °F / 47 °F 58 % 13 mph - 29.91 in 0 in

      Charts

      Temperature
      Precipitation
      Wind
      essentialaccessibility.com
      We recognize our responsibility to use data and technology for good. We may use or share your data with our data vendors. Take control of your data.
      Glossary